Airport ID:KMIO
Update Time (UTC):05/02/2023 09:50
Wind Speed (Knots):4
Wind Direction (Magnetic):210
Temperature (°C):4
Dew Point (°C):4
Humidity (%):95
Altimeter (inHg):30.09
Density Altitude (Feet):
Visibility:10+
Clouds (Hundreds of feet):CLR
Present Weather:
METAR:METAR KMIO 050945Z AUTO 22004KT 10SM CLR 04/04 A3009 RMK AO2

The data displayed is for advisory purposes only and is not to be used for flight planning or operations.